createdAt,value
2023-05-06T00:02:09.799Z,101269.57
2023-05-06T00:04:36.581Z,101265.71
2023-05-06T00:07:03.258Z,101258.70
2023-05-06T00:09:29.857Z,101248.04
2023-05-06T00:11:56.474Z,101259.38
2023-05-06T00:14:23.663Z,101263.19
2023-05-06T00:16:53.266Z,101262.99
2023-05-06T00:19:20.233Z,101232.49
2023-05-06T00:21:46.971Z,101263.58
2023-05-06T00:24:13.750Z,101266.67
2023-05-06T00:26:40.196Z,101269.63
2023-05-06T00:29:06.895Z,101271.02
2023-05-06T00:31:36.100Z,101266.42
2023-05-06T00:34:02.803Z,101264.77
2023-05-06T00:36:29.511Z,101263.71
2023-05-06T00:38:56.989Z,101264.42
2023-05-06T00:41:24.082Z,101265.48
2023-05-06T00:43:50.707Z,101267.61
2023-05-06T00:46:18.038Z,101267.08
2023-05-06T00:48:44.777Z,101265.54
2023-05-06T00:51:14.987Z,101265.80
2023-05-06T00:53:43.920Z,101252.44
2023-05-06T00:56:11.009Z,101268.23
2023-05-06T00:58:40.958Z,101265.56
2023-05-06T01:01:07.891Z,101267.10
2023-05-06T01:03:34.612Z,101268.66
2023-05-06T01:06:07.632Z,101268.81
2023-05-06T01:08:43.036Z,101265.80
2023-05-06T01:11:15.938Z,101272.84
2023-05-06T01:13:51.968Z,101269.86
2023-05-06T01:16:22.955Z,101272.35
2023-05-06T01:18:53.156Z,101275.45
2023-05-06T01:21:21.527Z,101277.26
2023-05-06T01:23:57.339Z,101280.42
2023-05-06T01:26:24.777Z,101283.55
2023-05-06T01:28:51.503Z,101286.14
2023-05-06T01:31:47.610Z,101286.55
2023-05-06T01:34:20.463Z,101289.61
2023-05-06T01:37:06.576Z,101292.65
2023-05-06T01:39:37.330Z,101290.39
2023-05-06T01:42:09.064Z,101289.52
2023-05-06T01:44:38.910Z,101293.64
2023-05-06T01:47:08.315Z,101294.71
2023-05-06T01:49:35.636Z,101291.73
2023-05-06T01:52:02.421Z,101290.31
2023-05-06T01:54:29.022Z,101286.64
2023-05-06T01:56:55.767Z,101285.18
2023-05-06T01:59:22.275Z,101282.79
2023-05-06T02:01:48.959Z,101283.40
2023-05-06T02:04:16.567Z,101285.29
2023-05-06T02:06:43.169Z,101292.41
2023-05-06T02:09:11.244Z,101284.70
2023-05-06T02:11:42.316Z,101283.23
2023-05-06T02:14:08.926Z,101280.84
2023-05-06T02:16:36.106Z,101277.92
2023-05-06T02:19:02.986Z,101279.61
2023-05-06T02:21:29.664Z,101272.52
2023-05-06T02:23:56.405Z,101272.45
2023-05-06T02:26:23.289Z,101266.79
2023-05-06T02:28:49.922Z,101268.11
2023-05-06T02:31:16.878Z,101258.72
2023-05-06T02:33:45.162Z,101256.20
2023-05-06T02:36:11.642Z,101251.61
2023-05-06T02:38:38.247Z,101250.88
2023-05-06T02:41:04.830Z,101246.30
2023-05-06T02:43:31.325Z,101254.00
2023-05-06T02:45:58.404Z,101257.16
2023-05-06T02:48:25.911Z,101252.55
2023-05-06T02:50:52.483Z,101239.55
2023-05-06T02:53:19.007Z,101251.56
2023-05-06T02:55:46.095Z,101255.34
2023-05-06T02:58:12.801Z,101253.34
2023-05-06T03:00:39.314Z,101252.00
2023-05-06T03:03:06.136Z,101254.48
2023-05-06T03:05:32.749Z,101263.66
2023-05-06T03:07:59.884Z,101261.89
2023-05-06T03:10:26.931Z,101265.06
2023-05-06T03:12:54.562Z,101262.34
2023-05-06T03:15:21.203Z,101262.09
2023-05-06T03:17:48.027Z,101273.01
2023-05-06T03:20:15.639Z,101281.13
2023-05-06T03:22:45.810Z,101287.45
2023-05-06T03:25:12.721Z,101287.16
2023-05-06T03:27:39.945Z,101285.75
2023-05-06T03:30:12.083Z,101281.63
2023-05-06T03:32:38.887Z,101281.41
2023-05-06T03:35:07.741Z,101279.34
2023-05-06T03:37:35.212Z,101282.77
2023-05-06T03:40:04.016Z,101289.44
2023-05-06T03:42:31.504Z,101290.98
2023-05-06T03:44:58.402Z,101287.85
2023-05-06T03:47:26.030Z,101288.39
2023-05-06T03:49:52.590Z,101289.84
2023-05-06T03:52:19.343Z,101286.88
2023-05-06T03:54:46.178Z,101284.66
2023-05-06T03:57:12.995Z,101288.65
2023-05-06T03:59:39.731Z,101287.11
2023-05-06T04:02:06.839Z,101277.84
2023-05-06T04:04:35.229Z,101274.96
2023-05-06T04:07:03.181Z,101276.05
2023-05-06T04:09:31.794Z,101273.45
2023-05-06T04:11:58.922Z,101272.05
2023-05-06T04:14:25.752Z,101242.11
2023-05-06T04:16:52.635Z,101265.97
2023-05-06T04:19:21.094Z,101268.41
2023-05-06T04:21:47.761Z,101264.02
2023-05-06T04:24:18.477Z,101258.52
2023-05-06T04:26:45.983Z,101262.43
2023-05-06T04:29:13.261Z,101262.43
2023-05-06T04:31:45.800Z,101261.69
2023-05-06T04:34:12.869Z,101262.55
2023-05-06T04:36:40.758Z,101267.79
2023-05-06T04:39:26.758Z,101269.45
2023-05-06T04:41:53.800Z,101266.38
2023-05-06T04:44:26.523Z,101263.40
2023-05-06T04:46:53.660Z,101258.11
2023-05-06T04:49:20.280Z,101258.80
2023-05-06T04:51:46.904Z,101255.75
2023-05-06T04:54:16.605Z,101260.27
2023-05-06T04:56:43.610Z,101244.64
2023-05-06T04:59:10.809Z,101254.20
2023-05-06T05:01:37.900Z,101247.25
2023-05-06T05:04:04.608Z,101258.27
2023-05-06T05:06:31.441Z,101253.91
2023-05-06T05:08:59.612Z,101253.25
2023-05-06T05:11:26.870Z,101258.67
2023-05-06T05:13:56.910Z,101257.97
2023-05-06T05:16:24.684Z,101259.53
2023-05-06T05:18:52.537Z,101261.56
2023-05-06T05:21:21.507Z,101261.09
2023-05-06T05:23:48.212Z,101244.73
2023-05-06T05:26:14.977Z,101260.85
2023-05-06T05:28:43.606Z,101260.55
2023-05-06T05:31:10.819Z,101251.75
2023-05-06T05:33:38.399Z,101257.40
2023-05-06T05:36:07.680Z,101256.91
2023-05-06T05:38:35.101Z,101257.71
2023-05-06T05:41:01.931Z,101256.02
2023-05-06T05:43:28.720Z,101247.45
2023-05-06T05:45:56.006Z,101248.88
2023-05-06T05:48:22.745Z,101230.83
2023-05-06T05:50:50.241Z,101241.27
2023-05-06T05:53:17.072Z,101234.92
2023-05-06T05:55:43.860Z,101233.70
2023-05-06T05:58:11.170Z,101234.06
2023-05-06T06:00:38.122Z,101231.59
2023-05-06T06:03:07.301Z,101228.25
2023-05-06T06:05:34.129Z,101215.95
2023-05-06T06:08:03.511Z,101228.78
2023-05-06T06:10:30.828Z,101229.14
2023-05-06T06:12:59.031Z,101231.02
2023-05-06T06:15:26.638Z,101230.14
2023-05-06T06:17:54.369Z,101227.04
2023-05-06T06:20:21.407Z,101226.15
2023-05-06T06:22:47.944Z,101226.89
2023-05-06T06:25:14.796Z,101229.25
2023-05-06T06:27:41.527Z,101216.21
2023-05-06T06:30:08.964Z,101226.56
2023-05-06T06:32:35.485Z,101227.80
2023-05-06T06:35:02.281Z,101226.56
2023-05-06T06:37:29.007Z,101227.61
2023-05-06T06:39:55.539Z,101230.63
2023-05-06T06:42:22.093Z,101227.96
2023-05-06T06:44:57.980Z,101225.98
2023-05-06T06:47:24.622Z,101225.11
2023-05-06T06:49:51.116Z,101222.65
2023-05-06T06:52:17.679Z,101217.52
2023-05-06T06:54:44.338Z,101217.99
2023-05-06T06:57:11.091Z,101214.44
2023-05-06T06:59:37.687Z,101213.16
2023-05-06T07:02:04.277Z,101211.29
2023-05-06T07:04:30.795Z,101208.23
2023-05-06T07:06:57.469Z,101209.29
2023-05-06T07:09:24.055Z,101206.09
2023-05-06T07:11:51.161Z,101201.66
2023-05-06T07:14:17.734Z,101201.93
2023-05-06T07:16:46.387Z,101197.91
2023-05-06T07:19:13.809Z,101194.23
2023-05-06T07:21:40.944Z,101189.08
2023-05-06T07:24:07.798Z,101188.27
2023-05-06T07:26:37.727Z,101183.23
2023-05-06T07:29:04.338Z,101178.14
2023-05-06T07:31:34.326Z,101176.52
2023-05-06T07:34:01.168Z,101169.46
2023-05-06T07:36:28.321Z,101170.02
2023-05-06T07:38:55.009Z,101167.44
2023-05-06T07:41:21.480Z,101170.13
2023-05-06T07:43:48.091Z,101157.54
2023-05-06T07:46:15.217Z,101171.42
2023-05-06T07:48:42.052Z,101174.77
2023-05-06T07:51:08.784Z,101179.30
2023-05-06T07:53:35.448Z,101184.61
2023-05-06T07:56:03.321Z,101184.98
2023-05-06T07:58:31.150Z,101187.53
2023-05-06T08:00:59.362Z,101188.61
2023-05-06T08:03:26.350Z,101183.91
2023-05-06T08:05:54.686Z,101182.50
2023-05-06T08:08:22.657Z,101185.34
2023-05-06T08:10:49.255Z,101186.17
2023-05-06T08:13:16.002Z,101183.86
2023-05-06T08:15:42.791Z,101185.58
2023-05-06T08:18:20.655Z,101184.82
2023-05-06T08:20:49.390Z,101185.39
2023-05-06T08:23:16.156Z,101192.29
2023-05-06T08:25:42.793Z,101191.73
2023-05-06T08:28:09.862Z,101196.08
2023-05-06T08:30:36.370Z,101194.54
2023-05-06T08:33:03.219Z,101191.70
2023-05-06T08:35:30.163Z,101178.02
2023-05-06T08:37:56.642Z,101190.71
2023-05-06T08:40:26.312Z,101189.56
2023-05-06T08:42:55.583Z,101190.79
2023-05-06T08:45:22.871Z,101177.02
2023-05-06T08:47:49.569Z,101191.16
2023-05-06T08:50:16.461Z,101194.42
2023-05-06T08:52:43.304Z,101179.09
2023-05-06T08:55:10.782Z,101192.45
2023-05-06T08:57:38.039Z,101192.67
2023-05-06T09:00:05.218Z,101194.79
2023-05-06T09:02:32.091Z,101196.63
2023-05-06T09:04:59.226Z,101193.20
2023-05-06T09:07:26.264Z,101193.50
2023-05-06T09:09:52.982Z,101191.92
2023-05-06T09:12:19.602Z,101183.55
2023-05-06T09:14:49.378Z,101178.87
2023-05-06T09:17:23.643Z,101176.39
2023-05-06T09:19:52.161Z,101171.42
2023-05-06T09:22:23.037Z,101168.63
2023-05-06T09:24:56.014Z,101168.08
2023-05-06T09:27:30.618Z,101167.52
2023-05-06T09:30:03.565Z,101167.88
2023-05-06T09:32:31.074Z,101165.94
2023-05-06T09:34:58.038Z,101159.63
2023-05-06T09:37:27.876Z,101157.34
2023-05-06T09:39:56.353Z,101144.50
2023-05-06T09:42:28.073Z,101159.35
2023-05-06T09:44:58.588Z,101156.56
2023-05-06T09:47:29.373Z,101157.87
2023-05-06T09:49:57.944Z,101153.45
2023-05-06T09:52:28.071Z,101151.23
2023-05-06T09:54:55.257Z,101153.18
2023-05-06T09:57:22.192Z,101152.66
2023-05-06T09:59:51.589Z,101155.14
2023-05-06T10:02:19.276Z,101155.75
2023-05-06T10:04:48.988Z,101151.18
2023-05-06T10:07:22.012Z,101151.52
2023-05-06T10:09:50.909Z,101149.84
2023-05-06T10:12:20.890Z,101149.96
2023-05-06T10:14:47.839Z,101147.67
2023-05-06T10:17:17.647Z,101142.90
2023-05-06T10:19:49.908Z,101147.48
2023-05-06T10:22:46.618Z,101141.47
2023-05-06T10:25:16.473Z,101140.05
2023-05-06T10:27:45.270Z,101140.78
2023-05-06T10:30:16.283Z,101132.31
2023-05-06T10:32:45.153Z,101126.96
2023-05-06T10:35:22.163Z,101121.21
2023-05-06T10:37:51.128Z,101120.05
2023-05-06T10:40:18.540Z,101110.14
2023-05-06T10:42:45.268Z,101110.63
2023-05-06T10:45:14.671Z,101106.80
2023-05-06T10:47:57.024Z,101105.06
2023-05-06T10:50:25.265Z,101098.55
2023-05-06T10:52:56.816Z,101097.49
2023-05-06T10:55:31.126Z,101093.79
2023-05-06T10:58:14.001Z,101087.46
2023-05-06T11:00:41.125Z,101087.36
2023-05-06T11:03:11.202Z,101085.70
2023-05-06T11:05:54.380Z,101091.29
2023-05-06T11:08:23.237Z,101089.10
2023-05-06T11:10:50.582Z,101091.10
2023-05-06T11:13:22.295Z,101095.20
2023-05-06T11:15:51.370Z,101097.67
2023-05-06T11:18:24.462Z,101100.95
2023-05-06T11:21:19.862Z,101091.05
2023-05-06T11:23:48.732Z,101097.30
2023-05-06T11:26:15.882Z,101106.27
2023-05-06T11:28:44.187Z,101105.58
2023-05-06T11:31:12.578Z,101107.01
2023-05-06T11:33:46.365Z,101102.94
2023-05-06T11:36:18.123Z,101106.92
2023-05-06T11:38:51.965Z,101110.83
2023-05-06T11:41:19.111Z,101112.60
2023-05-06T11:43:50.466Z,101117.81
2023-05-06T11:46:21.693Z,101118.25
2023-05-06T11:48:49.853Z,101118.33
2023-05-06T11:51:21.879Z,101119.14
2023-05-06T11:53:48.862Z,101119.09
2023-05-06T11:56:15.723Z,101118.84
2023-05-06T11:58:43.338Z,101122.81
2023-05-06T12:01:09.895Z,101124.41
2023-05-06T12:03:36.784Z,101127.55
2023-05-06T12:06:04.147Z,101127.59
2023-05-06T12:08:35.726Z,101123.94
2023-05-06T12:11:06.657Z,101125.77
2023-05-06T12:13:36.073Z,101126.30
2023-05-06T12:16:05.001Z,101127.30
2023-05-06T12:18:32.085Z,101133.54
2023-05-06T12:21:02.570Z,101134.63
2023-05-06T12:23:29.426Z,101137.41
2023-05-06T12:26:04.399Z,101140.85
2023-05-06T12:28:32.620Z,101136.20
2023-05-06T12:31:00.390Z,101122.23
2023-05-06T12:33:27.035Z,101131.30
2023-05-06T12:36:05.577Z,101129.36
2023-05-06T12:38:32.562Z,101128.06
2023-05-06T12:40:59.126Z,101121.62
2023-05-06T12:43:30.865Z,101120.28
2023-05-06T12:46:08.305Z,101117.77
2023-05-06T12:48:35.103Z,101112.52
2023-05-06T12:51:17.855Z,101107.41
2023-05-06T12:53:44.497Z,101101.70
2023-05-06T12:56:11.070Z,101101.25
2023-05-06T12:58:39.045Z,101090.15
2023-05-06T13:01:09.374Z,101092.27
2023-05-06T13:03:38.600Z,101092.67
2023-05-06T13:06:05.628Z,101086.75
2023-05-06T13:08:33.333Z,101080.23
2023-05-06T13:11:01.775Z,101074.35
2023-05-06T13:13:28.555Z,101071.20
2023-05-06T13:15:55.917Z,101065.92
2023-05-06T13:18:23.114Z,101064.63
2023-05-06T13:20:51.297Z,101059.60
2023-05-06T13:23:21.894Z,101058.20
2023-05-06T13:26:02.939Z,101055.20
2023-05-06T13:28:32.219Z,101051.86
2023-05-06T13:30:59.010Z,101054.15
2023-05-06T13:33:25.659Z,101049.87
2023-05-06T13:35:52.574Z,101051.17
2023-05-06T13:38:19.141Z,101055.96
2023-05-06T13:40:51.036Z,101057.73
2023-05-06T13:43:18.898Z,101057.13
2023-05-06T13:45:45.618Z,101041.59
2023-05-06T13:48:15.167Z,101051.53
2023-05-06T13:50:43.201Z,101046.44
2023-05-06T13:53:11.037Z,101043.35
2023-05-06T13:55:37.793Z,101038.85
2023-05-06T13:58:06.211Z,101039.27
2023-05-06T14:00:34.155Z,101041.93
2023-05-06T14:03:01.170Z,101045.64
2023-05-06T14:05:29.908Z,101027.73
2023-05-06T14:07:56.593Z,101041.75
2023-05-06T14:10:23.495Z,101045.05
2023-05-06T14:12:50.666Z,101038.77
2023-05-06T14:15:17.340Z,101033.48
2023-05-06T14:17:44.337Z,101034.77
2023-05-06T14:20:11.265Z,101035.73
2023-05-06T14:22:40.793Z,101027.05
2023-05-06T14:25:08.707Z,101026.09
2023-05-06T14:27:36.488Z,101027.70
2023-05-06T14:30:08.865Z,101030.16
2023-05-06T14:32:36.803Z,101017.88
2023-05-06T14:35:03.952Z,101030.83
2023-05-06T14:37:30.486Z,101031.13
2023-05-06T14:39:57.306Z,101035.69
2023-05-06T14:42:27.654Z,101038.71
2023-05-06T14:44:54.564Z,101034.61
2023-05-06T14:47:21.579Z,101036.48
2023-05-06T14:49:48.276Z,101032.73
2023-05-06T14:52:15.013Z,101030.79
2023-05-06T14:54:42.353Z,101028.66
2023-05-06T14:57:10.337Z,101030.98
2023-05-06T14:59:37.831Z,101029.77
2023-05-06T15:02:07.574Z,101031.44
2023-05-06T15:04:34.653Z,101030.65
2023-05-06T15:07:02.174Z,101029.27
2023-05-06T15:09:29.131Z,101032.33
2023-05-06T15:11:57.119Z,101037.64
2023-05-06T15:14:28.220Z,101039.77
2023-05-06T15:17:02.370Z,101043.16
2023-05-06T15:19:29.456Z,101042.73
2023-05-06T15:21:56.595Z,101045.40
2023-05-06T15:24:25.814Z,101046.88
2023-05-06T15:26:54.778Z,101048.62
2023-05-06T15:29:21.743Z,101044.59
2023-05-06T15:31:49.471Z,101045.04
2023-05-06T15:34:16.354Z,101045.33
2023-05-06T15:36:43.924Z,101047.02
2023-05-06T15:39:13.557Z,101051.25
2023-05-06T15:41:40.678Z,101059.52
2023-05-06T15:44:09.964Z,101060.98
2023-05-06T15:46:38.017Z,101054.14
2023-05-06T15:51:35.123Z,101064.02
2023-05-06T15:54:04.614Z,101064.89
2023-05-06T15:56:39.303Z,101068.48
2023-05-06T15:59:08.532Z,101072.38
2023-05-06T16:02:18.867Z,101072.66
2023-05-06T16:04:23.706Z,101080.08
2023-05-06T16:06:50.540Z,101066.69
2023-05-06T16:09:17.366Z,101088.54
2023-05-06T16:11:44.581Z,101091.55
2023-05-06T16:14:11.311Z,101089.48
2023-05-06T16:16:38.212Z,101090.19
2023-05-06T16:19:05.361Z,101093.02
2023-05-06T16:21:31.968Z,101092.96
2023-05-06T16:24:00.401Z,101097.52
2023-05-06T16:26:27.383Z,101102.95
2023-05-06T16:28:54.119Z,101101.16
2023-05-06T16:31:20.916Z,101093.92
2023-05-06T16:33:47.661Z,101106.91
2023-05-06T16:36:14.540Z,101110.43
2023-05-06T16:38:41.389Z,101109.81
2023-05-06T16:41:08.194Z,101110.14
2023-05-06T16:43:34.808Z,101108.03
2023-05-06T16:46:01.483Z,101109.61
2023-05-06T16:48:28.596Z,101109.63
2023-05-06T16:50:55.364Z,101109.30
2023-05-06T16:53:22.031Z,101111.27
2023-05-06T16:55:49.508Z,101108.25
2023-05-06T16:58:16.398Z,101109.02
2023-05-06T17:00:43.305Z,101103.16
2023-05-06T17:03:10.966Z,101100.84
2023-05-06T17:05:38.436Z,101095.29
2023-05-06T17:08:05.305Z,101096.21
2023-05-06T17:10:32.304Z,101097.09
2023-05-06T17:12:59.308Z,101081.91
2023-05-06T17:15:26.451Z,101095.77
2023-05-06T17:17:53.302Z,101093.38
2023-05-06T17:20:20.507Z,101094.98
2023-05-06T17:22:47.715Z,101096.63
2023-05-06T17:25:15.072Z,101097.35
2023-05-06T17:27:41.658Z,101097.44
2023-05-06T17:30:11.774Z,101098.51
2023-05-06T17:32:39.190Z,101103.27
2023-05-06T17:35:06.777Z,101099.55
2023-05-06T17:37:33.808Z,101104.96
2023-05-06T17:40:00.623Z,101108.38
2023-05-06T17:42:27.224Z,101111.84
2023-05-06T17:44:54.218Z,101112.25
2023-05-06T17:47:22.398Z,101115.27
2023-05-06T17:49:53.075Z,101114.76
2023-05-06T17:52:20.090Z,101115.20
2023-05-06T17:55:05.671Z,101114.55
2023-05-06T17:57:36.947Z,101115.54
2023-05-06T18:00:04.147Z,101116.34
2023-05-06T18:02:38.702Z,101115.37
2023-05-06T18:05:06.191Z,101116.42
2023-05-06T18:07:36.853Z,101110.91
2023-05-06T18:10:03.747Z,101115.02
2023-05-06T18:15:22.080Z,101101.68
2023-05-06T18:17:49.527Z,101124.00
2023-05-06T18:20:16.507Z,101125.67
2023-05-06T18:22:43.325Z,101130.32
2023-05-06T18:25:10.471Z,101135.44
2023-05-06T18:27:40.090Z,101135.14
2023-05-06T18:30:07.640Z,101135.00
2023-05-06T18:32:35.802Z,101138.05
2023-05-06T18:35:02.353Z,101138.62
2023-05-06T18:37:29.093Z,101139.79
2023-05-06T18:39:57.655Z,101142.16
2023-05-06T18:42:24.374Z,101127.53
2023-05-06T18:44:51.088Z,101143.55
2023-05-06T18:47:18.669Z,101141.84
2023-05-06T18:49:45.653Z,101143.32
2023-05-06T18:52:14.602Z,101141.80
2023-05-06T18:54:41.396Z,101142.42
2023-05-06T18:57:08.465Z,101143.61
2023-05-06T18:59:35.926Z,101145.55
2023-05-06T19:02:03.809Z,101146.30
2023-05-06T19:04:31.532Z,101144.13
2023-05-06T19:06:58.530Z,101141.15
2023-05-06T19:09:25.169Z,101142.64
2023-05-06T19:11:51.794Z,101141.64
2023-05-06T19:14:18.799Z,101147.20
2023-05-06T19:16:46.041Z,101143.58
2023-05-06T19:19:12.625Z,101144.05
2023-05-06T19:21:39.378Z,101141.73
2023-05-06T19:24:06.229Z,101139.46
2023-05-06T19:26:32.906Z,101135.80
2023-05-06T19:28:59.848Z,101136.92
2023-05-06T19:31:26.592Z,101134.70
2023-05-06T19:33:53.191Z,101132.75
2023-05-06T19:36:19.930Z,101131.39
2023-05-06T19:38:46.645Z,101133.36
2023-05-06T19:41:13.411Z,101128.69
2023-05-06T19:43:42.097Z,101128.75
2023-05-06T19:46:10.119Z,101126.77
2023-05-06T19:48:38.386Z,101129.27
2023-05-06T19:51:06.140Z,101131.80
2023-05-06T19:53:33.671Z,101137.80
2023-05-06T19:56:11.425Z,101140.44
2023-05-06T19:58:38.612Z,101140.81
2023-05-06T20:01:05.472Z,101140.95
2023-05-06T20:03:32.674Z,101140.42
2023-05-06T20:05:59.584Z,101147.98
2023-05-06T20:08:26.325Z,101148.33
2023-05-06T20:10:53.224Z,101151.85
2023-05-06T20:13:20.303Z,101154.03
2023-05-06T20:15:48.335Z,101151.66
2023-05-06T20:18:15.014Z,101156.70
2023-05-06T20:20:42.728Z,101152.19
2023-05-06T20:23:09.269Z,101152.87
2023-05-06T20:25:36.965Z,101153.21
2023-05-06T20:28:06.470Z,101148.52
2023-05-06T20:30:34.259Z,101149.04
2023-05-06T20:33:01.686Z,101148.23
2023-05-06T20:35:28.503Z,101145.30
2023-05-06T20:37:55.148Z,101143.61
2023-05-06T20:40:21.873Z,101146.85
2023-05-06T20:42:48.626Z,101145.16
2023-05-06T20:45:16.342Z,101145.58
2023-05-06T20:47:46.272Z,101146.52
2023-05-06T20:50:16.617Z,101146.27
2023-05-06T20:52:45.353Z,101144.53
2023-05-06T20:55:13.996Z,101145.98
2023-05-06T20:57:44.385Z,101131.29
2023-05-06T21:00:11.556Z,101144.47
2023-05-06T21:02:41.486Z,101145.73
2023-05-06T21:05:09.663Z,101150.48
2023-05-06T21:07:36.376Z,101148.11
2023-05-06T21:10:05.591Z,101150.58
2023-05-06T21:12:32.818Z,101151.73
2023-05-06T21:15:00.239Z,101151.04
2023-05-06T21:17:26.978Z,101149.65
2023-05-06T21:19:53.648Z,101148.92
2023-05-06T21:22:22.452Z,101142.92
2023-05-06T21:24:50.250Z,101151.73
2023-05-06T21:27:16.855Z,101152.65
2023-05-06T21:29:43.292Z,101154.64
2023-05-06T21:32:10.041Z,101154.17
2023-05-06T21:34:37.067Z,101148.77
2023-05-06T21:37:03.591Z,101154.04
2023-05-06T21:39:30.325Z,101151.93
2023-05-06T21:41:57.633Z,101153.88
2023-05-06T21:44:24.097Z,101154.59
2023-05-06T21:46:50.816Z,101154.45
2023-05-06T21:49:18.775Z,101157.81
2023-05-06T21:51:45.672Z,101155.36
2023-05-06T21:54:12.949Z,101153.27
2023-05-06T21:56:39.878Z,101154.01
2023-05-06T21:59:07.377Z,101149.98
2023-05-06T22:01:35.716Z,101145.98
2023-05-06T22:04:04.060Z,101146.70
2023-05-06T22:06:30.821Z,101146.76
2023-05-06T22:08:57.604Z,101149.44
2023-05-06T22:11:24.430Z,101151.07
2023-05-06T22:13:51.214Z,101157.11
2023-05-06T22:16:18.001Z,101157.34
2023-05-06T22:18:44.756Z,101163.16
2023-05-06T22:21:11.294Z,101164.20
2023-05-06T22:23:39.959Z,101162.45
2023-05-06T22:26:06.651Z,101165.98
2023-05-06T22:28:33.616Z,101164.98
2023-05-06T22:31:00.333Z,101165.85
2023-05-06T22:33:26.927Z,101160.83
2023-05-06T22:35:54.969Z,101162.30
2023-05-06T22:38:21.805Z,101160.77
2023-05-06T22:40:48.681Z,101159.38
2023-05-06T22:43:15.388Z,101166.40
2023-05-06T22:45:42.760Z,101163.11
2023-05-06T22:48:10.225Z,101161.59
2023-05-06T22:50:37.439Z,101159.19
2023-05-06T22:53:13.509Z,101160.10
2023-05-06T22:55:41.823Z,101164.39
2023-05-06T22:58:08.574Z,101158.64
2023-05-06T23:00:35.224Z,101156.09
2023-05-06T23:03:02.300Z,101158.73
2023-05-06T23:05:29.302Z,101158.21
2023-05-06T23:07:56.356Z,101159.90
2023-05-06T23:10:23.515Z,101159.22
2023-05-06T23:12:50.309Z,101161.18
2023-05-06T23:15:16.971Z,101168.13
2023-05-06T23:17:43.577Z,101170.06
2023-05-06T23:20:12.209Z,101170.79
2023-05-06T23:22:38.893Z,101174.33
2023-05-06T23:25:05.974Z,101175.40
2023-05-06T23:27:32.661Z,101179.98
2023-05-06T23:29:59.302Z,101176.71
2023-05-06T23:32:26.686Z,101175.55
2023-05-06T23:34:53.360Z,101176.33
2023-05-06T23:37:19.896Z,101177.85
2023-05-06T23:39:47.095Z,101178.17
2023-05-06T23:42:13.796Z,101177.04
2023-05-06T23:44:40.264Z,101177.61
2023-05-06T23:47:07.094Z,101178.17
2023-05-06T23:49:35.669Z,101181.19
2023-05-06T23:52:02.674Z,101175.22
2023-05-06T23:54:29.296Z,101178.17
2023-05-06T23:56:55.938Z,101175.02
2023-05-06T23:59:22.496Z,101176.45
